createdAt,value
2022-11-14T00:02:41.564Z,5.30
2022-11-14T00:05:28.153Z,5.30
2022-11-14T00:08:25.327Z,5.30
2022-11-14T00:11:11.163Z,5.30
2022-11-14T00:13:56.869Z,5.30
2022-11-14T00:16:42.578Z,5.30
2022-11-14T00:19:28.553Z,5.30
2022-11-14T00:22:14.136Z,5.30
2022-11-14T00:25:00.320Z,5.40
2022-11-14T00:27:46.230Z,5.30
2022-11-14T00:30:32.103Z,5.40
2022-11-14T00:33:21.377Z,5.40
2022-11-14T00:36:07.478Z,5.30
2022-11-14T00:38:55.370Z,5.30
2022-11-14T00:41:42.160Z,5.30
2022-11-14T00:44:28.002Z,5.40
2022-11-14T00:47:13.746Z,5.30
2022-11-14T00:49:59.422Z,5.30
2022-11-14T00:52:45.422Z,5.30
2022-11-14T00:55:31.356Z,5.40
2022-11-14T00:58:17.539Z,5.40
2022-11-14T01:01:04.302Z,5.40
2022-11-14T01:03:51.612Z,5.40
2022-11-14T01:06:37.372Z,5.40
2022-11-14T01:09:23.263Z,5.40
2022-11-14T01:12:10.357Z,5.40
2022-11-14T01:14:56.112Z,5.50
2022-11-14T01:17:42.086Z,5.60
2022-11-14T01:20:28.048Z,5.60
2022-11-14T01:23:15.964Z,5.60
2022-11-14T01:26:11.055Z,5.60
2022-11-14T01:28:56.975Z,5.50
2022-11-14T01:31:42.675Z,5.50
2022-11-14T01:34:29.760Z,5.50
2022-11-14T01:37:15.797Z,5.50
2022-11-14T01:40:01.720Z,5.50
2022-11-14T01:43:22.084Z,5.50
2022-11-14T01:46:16.455Z,5.50
2022-11-14T01:49:25.873Z,5.50
2022-11-14T01:52:22.236Z,5.50
2022-11-14T01:55:10.291Z,5.50
2022-11-14T01:57:57.890Z,5.40
2022-11-14T02:00:44.588Z,5.50
2022-11-14T02:03:31.313Z,5.50
2022-11-14T02:06:21.251Z,5.50
2022-11-14T02:09:08.288Z,5.40
2022-11-14T02:11:57.541Z,5.40
2022-11-14T02:14:46.199Z,5.50
2022-11-14T02:17:32.772Z,5.50
2022-11-14T02:20:24.508Z,5.50
2022-11-14T02:23:11.896Z,5.40
2022-11-14T02:25:58.211Z,5.40
2022-11-14T02:28:43.959Z,5.40
2022-11-14T02:31:30.492Z,5.40
2022-11-14T02:34:20.166Z,5.30
2022-11-14T02:37:07.323Z,5.40
2022-11-14T02:39:53.230Z,5.30
2022-11-14T02:42:38.826Z,5.30
2022-11-14T02:45:25.217Z,5.20
2022-11-14T02:48:11.146Z,5.20
2022-11-14T02:50:57.033Z,5.30
2022-11-14T02:53:42.996Z,5.20
2022-11-14T02:56:29.128Z,5.20
2022-11-14T02:59:15.048Z,5.20
2022-11-14T03:02:00.958Z,5.20
2022-11-14T03:04:46.808Z,5.20
2022-11-14T03:07:32.862Z,5.20
2022-11-14T03:10:19.005Z,5.30
2022-11-14T03:13:04.942Z,5.20
2022-11-14T03:15:50.615Z,5.10
2022-11-14T03:18:37.557Z,5.20
2022-11-14T03:21:23.967Z,5.10
2022-11-14T03:24:09.631Z,5.10
2022-11-14T03:26:55.700Z,5.10
2022-11-14T03:29:41.688Z,5.00
2022-11-14T03:32:27.505Z,5.00
2022-11-14T03:35:14.265Z,5.10
2022-11-14T03:37:59.977Z,5.10
2022-11-14T03:40:47.108Z,5.10
2022-11-14T03:43:34.628Z,5.00
2022-11-14T03:46:20.752Z,5.00
2022-11-14T03:49:07.000Z,5.00
2022-11-14T03:51:53.105Z,5.00
2022-11-14T03:54:39.302Z,5.00
2022-11-14T03:57:24.815Z,5.10
2022-11-14T04:00:11.647Z,5.10
2022-11-14T04:02:57.979Z,5.10
2022-11-14T04:05:45.576Z,5.10
2022-11-14T04:08:32.582Z,5.20
2022-11-14T04:11:19.470Z,5.20
2022-11-14T04:14:05.566Z,5.30
2022-11-14T04:16:51.468Z,5.30
2022-11-14T04:19:37.700Z,5.40
2022-11-14T04:22:23.486Z,5.40
2022-11-14T04:25:10.051Z,5.50
2022-11-14T04:27:56.246Z,5.50
2022-11-14T04:30:42.188Z,5.50
2022-11-14T04:33:28.042Z,5.40
2022-11-14T04:36:14.014Z,5.40
2022-11-14T04:39:00.040Z,5.40
2022-11-14T04:41:46.527Z,5.30
2022-11-14T04:44:32.539Z,5.30
2022-11-14T04:47:18.579Z,5.40
2022-11-14T04:50:05.301Z,5.40
2022-11-14T04:52:54.311Z,5.40
2022-11-14T04:55:40.187Z,5.40
2022-11-14T04:58:27.188Z,5.40
2022-11-14T05:01:14.597Z,5.40
2022-11-14T05:04:00.508Z,5.40
2022-11-14T05:06:46.568Z,5.60
2022-11-14T05:09:32.451Z,5.50
2022-11-14T05:12:18.263Z,5.50
2022-11-14T05:15:04.313Z,5.50
2022-11-14T05:17:50.613Z,5.50
2022-11-14T05:20:36.964Z,5.60
2022-11-14T05:23:24.269Z,5.60
2022-11-14T05:26:14.856Z,5.60
2022-11-14T05:29:00.926Z,5.60
2022-11-14T05:31:46.853Z,5.70
2022-11-14T05:34:32.890Z,5.70
2022-11-14T05:37:18.577Z,5.70
2022-11-14T05:40:06.277Z,5.70
2022-11-14T05:42:56.542Z,5.70
2022-11-14T05:45:42.312Z,5.70
2022-11-14T05:48:29.643Z,5.70
2022-11-14T05:51:15.910Z,5.60
2022-11-14T05:54:02.054Z,5.70
2022-11-14T05:56:47.600Z,5.70
2022-11-14T05:59:33.650Z,5.70
2022-11-14T06:02:19.859Z,5.70
2022-11-14T06:05:06.157Z,5.70
2022-11-14T06:07:59.648Z,5.70
2022-11-14T06:10:46.384Z,5.80
2022-11-14T06:13:32.928Z,5.70
2022-11-14T06:16:20.154Z,5.70
2022-11-14T06:19:06.961Z,5.70
2022-11-14T06:22:05.124Z,5.70
2022-11-14T06:24:53.111Z,5.80
2022-11-14T06:27:51.308Z,5.80
2022-11-14T06:30:38.408Z,5.80
2022-11-14T06:33:36.024Z,5.90
2022-11-14T06:36:21.710Z,5.90
2022-11-14T06:39:10.755Z,5.90
2022-11-14T06:41:56.996Z,5.90
2022-11-14T06:44:43.900Z,6.00
2022-11-14T06:47:30.765Z,6.00
2022-11-14T06:50:17.762Z,6.00
2022-11-14T06:53:03.702Z,6.10
2022-11-14T06:56:00.146Z,6.10
2022-11-14T06:58:48.551Z,6.10
2022-11-14T07:01:34.586Z,6.20
2022-11-14T07:04:21.498Z,6.30
2022-11-14T07:07:12.399Z,6.30
2022-11-14T07:10:00.239Z,6.30
2022-11-14T07:12:46.174Z,6.30
2022-11-14T07:15:32.920Z,6.40
2022-11-14T07:18:22.949Z,6.40
2022-11-14T07:21:10.106Z,6.40
2022-11-14T07:23:57.297Z,6.40
2022-11-14T07:26:43.170Z,6.40
2022-11-14T07:29:29.073Z,6.40
2022-11-14T07:32:25.289Z,6.40
2022-11-14T07:35:11.419Z,6.40
2022-11-14T07:38:05.730Z,6.40
2022-11-14T07:40:59.555Z,6.40
2022-11-14T07:43:46.013Z,6.50
2022-11-14T07:46:32.916Z,6.50
2022-11-14T07:49:18.740Z,6.50
2022-11-14T07:52:05.015Z,6.60
2022-11-14T07:54:54.043Z,6.60
2022-11-14T07:57:43.936Z,6.60
2022-11-14T08:00:32.580Z,6.60
2022-11-14T08:03:19.477Z,6.50
2022-11-14T08:06:10.008Z,6.60
2022-11-14T08:08:56.789Z,6.60
2022-11-14T08:11:48.331Z,6.60
2022-11-14T08:14:35.546Z,6.70
2022-11-14T08:17:25.219Z,6.60
2022-11-14T08:20:13.204Z,6.60
2022-11-14T08:23:18.846Z,6.60
2022-11-14T08:26:04.649Z,6.60
2022-11-14T08:28:55.107Z,6.60
2022-11-14T08:31:41.984Z,6.60
2022-11-14T08:34:30.584Z,6.90
2022-11-14T08:37:21.740Z,6.80
2022-11-14T08:40:08.335Z,6.90
2022-11-14T08:43:01.426Z,6.70
2022-11-14T08:45:47.161Z,6.80
2022-11-14T08:48:34.304Z,6.80
2022-11-14T08:51:21.195Z,6.90
2022-11-14T08:54:13.415Z,7.00
2022-11-14T08:57:00.349Z,7.00
2022-11-14T08:59:49.135Z,7.00
2022-11-14T09:02:35.285Z,7.10
2022-11-14T09:05:23.121Z,7.20
2022-11-14T09:08:08.885Z,7.30
2022-11-14T09:10:56.059Z,7.30
2022-11-14T09:13:41.904Z,7.30
2022-11-14T09:16:28.930Z,7.40
2022-11-14T09:19:15.075Z,7.40
2022-11-14T09:22:02.036Z,7.30
2022-11-14T09:24:49.651Z,7.50
2022-11-14T09:27:35.558Z,7.50
2022-11-14T09:30:22.815Z,7.60
2022-11-14T09:33:15.147Z,7.60
2022-11-14T09:36:07.650Z,7.70
2022-11-14T09:38:54.238Z,7.80
2022-11-14T09:42:06.285Z,7.90
2022-11-14T09:45:04.299Z,7.70
2022-11-14T09:47:55.602Z,7.80
2022-11-14T09:50:46.946Z,8.00
2022-11-14T09:53:42.767Z,8.00
2022-11-14T09:56:34.541Z,8.00
2022-11-14T09:59:20.583Z,8.00
2022-11-14T10:02:47.591Z,8.00
2022-11-14T10:05:48.183Z,8.10
2022-11-14T10:08:43.174Z,8.20
2022-11-14T10:11:36.664Z,8.20
2022-11-14T10:14:50.847Z,8.40
2022-11-14T10:18:03.209Z,8.30
2022-11-14T10:20:54.296Z,8.60
2022-11-14T10:24:10.018Z,8.50
2022-11-14T10:27:11.424Z,8.50
2022-11-14T10:30:18.784Z,8.40
2022-11-14T10:33:27.973Z,8.50
2022-11-14T10:36:29.016Z,8.50
2022-11-14T10:39:52.662Z,8.60
2022-11-14T10:42:43.317Z,11.00
2022-11-14T10:45:39.023Z,11.50
2022-11-14T10:48:39.945Z,11.70
2022-11-14T10:51:34.349Z,13.10
2022-11-14T10:54:34.054Z,13.50
2022-11-14T10:57:25.150Z,14.10
2022-11-14T11:00:18.997Z,14.10
2022-11-14T11:03:07.855Z,14.90
2022-11-14T11:05:57.817Z,13.60
2022-11-14T11:09:03.129Z,14.10
2022-11-14T11:11:59.080Z,14.40
2022-11-14T11:15:14.797Z,14.30
2022-11-14T11:18:05.710Z,15.50
2022-11-14T11:21:17.932Z,15.10
2022-11-14T11:24:05.058Z,15.60
2022-11-14T11:27:14.629Z,15.40
2022-11-14T11:30:07.691Z,13.20
2022-11-14T11:32:55.403Z,13.20
2022-11-14T11:35:43.324Z,15.00
2022-11-14T11:38:36.329Z,14.20
2022-11-14T11:42:08.645Z,13.70
2022-11-14T11:44:47.677Z,14.30
2022-11-14T11:47:35.840Z,15.60
2022-11-14T11:50:24.787Z,14.90
2022-11-14T11:53:39.341Z,15.70
2022-11-14T11:56:31.888Z,14.10
2022-11-14T11:59:51.366Z,14.30
2022-11-14T12:02:49.544Z,12.50
2022-11-14T12:06:04.970Z,11.00
2022-11-14T12:09:22.714Z,10.80
2022-11-14T12:12:43.498Z,12.50
2022-11-14T12:15:38.073Z,14.70
2022-11-14T12:18:36.908Z,13.60
2022-11-14T12:21:31.964Z,13.10
2022-11-14T12:24:38.149Z,12.60
2022-11-14T12:27:45.933Z,12.80
2022-11-14T12:30:35.320Z,12.60
2022-11-14T12:33:31.370Z,11.70
2022-11-14T12:36:17.607Z,10.70
2022-11-14T12:39:04.239Z,10.30
2022-11-14T12:42:00.457Z,10.30
2022-11-14T12:44:46.888Z,10.20
2022-11-14T12:48:16.805Z,10.10
2022-11-14T12:51:27.493Z,10.10
2022-11-14T12:54:44.710Z,9.90
2022-11-14T12:58:05.332Z,10.00
2022-11-14T13:00:51.300Z,9.80
2022-11-14T13:04:02.937Z,9.70
2022-11-14T13:07:20.636Z,9.70
2022-11-14T13:10:32.560Z,9.60
2022-11-14T13:13:37.392Z,9.50
2022-11-14T13:16:44.692Z,9.30
2022-11-14T13:19:50.140Z,9.10
2022-11-14T13:22:40.776Z,9.00
2022-11-14T13:25:28.715Z,9.00
2022-11-14T13:28:52.646Z,9.00
2022-11-14T13:31:51.593Z,9.10
2022-11-14T13:34:59.134Z,9.20
2022-11-14T13:38:06.600Z,9.10
2022-11-14T13:41:02.260Z,9.00
2022-11-14T13:44:18.441Z,9.00
2022-11-14T13:47:51.221Z,8.90
2022-11-14T13:50:38.414Z,9.00
2022-11-14T13:53:27.753Z,8.90
2022-11-14T13:56:24.526Z,8.80
2022-11-14T13:59:41.829Z,8.70
2022-11-14T14:02:40.652Z,8.60
2022-11-14T14:05:55.671Z,8.60
2022-11-14T14:09:06.815Z,8.50
2022-11-14T14:12:14.391Z,8.50
2022-11-14T14:15:21.364Z,8.30
2022-11-14T14:18:24.958Z,8.30
2022-11-14T14:21:22.906Z,8.20
2022-11-14T14:24:15.269Z,8.10
2022-11-14T14:27:26.483Z,8.10
2022-11-14T14:30:35.715Z,8.00
2022-11-14T14:33:22.387Z,7.80
2022-11-14T14:36:27.558Z,7.80
2022-11-14T14:39:26.543Z,7.60
2022-11-14T14:42:18.514Z,7.50
2022-11-14T14:45:05.436Z,7.40
2022-11-14T14:48:03.336Z,7.40
2022-11-14T14:50:59.051Z,7.40
2022-11-14T14:53:54.103Z,7.30
2022-11-14T14:56:54.391Z,7.10
2022-11-14T14:59:42.395Z,7.20
2022-11-14T15:02:29.548Z,7.10
2022-11-14T15:05:28.811Z,7.00
2022-11-14T15:08:17.573Z,6.80
2022-11-14T15:11:07.387Z,6.80
2022-11-14T15:13:58.318Z,6.70
2022-11-14T15:17:00.692Z,6.70
2022-11-14T15:19:49.883Z,6.60
2022-11-14T15:22:39.360Z,6.60
2022-11-14T15:25:25.527Z,6.50
2022-11-14T15:28:20.700Z,6.50
2022-11-14T15:31:21.149Z,6.40
2022-11-14T15:34:28.305Z,6.40
2022-11-14T15:37:14.396Z,6.40
2022-11-14T15:40:21.528Z,6.30
2022-11-14T15:43:49.782Z,6.30
2022-11-14T15:46:40.264Z,6.20
2022-11-14T15:49:36.884Z,6.10
2022-11-14T15:52:32.492Z,6.00
2022-11-14T15:55:39.296Z,5.90
2022-11-14T15:58:28.606Z,5.80
2022-11-14T16:01:26.400Z,5.80
2022-11-14T16:04:29.776Z,5.80
2022-11-14T16:07:23.297Z,5.80
2022-11-14T16:10:25.095Z,5.80
2022-11-14T16:13:16.948Z,5.80
2022-11-14T16:16:04.046Z,5.80
2022-11-14T16:18:53.084Z,5.80
2022-11-14T16:21:40.565Z,5.80
2022-11-14T16:24:36.584Z,5.80
2022-11-14T16:27:22.573Z,5.90
2022-11-14T16:30:12.645Z,6.00
2022-11-14T16:32:59.091Z,6.00
2022-11-14T16:35:45.936Z,6.00
2022-11-14T16:38:33.195Z,5.90
2022-11-14T16:41:20.021Z,6.00
2022-11-14T16:44:12.755Z,5.90
2022-11-14T16:46:59.114Z,5.80
2022-11-14T16:49:48.803Z,5.80
2022-11-14T16:52:39.363Z,5.80
2022-11-14T16:55:32.303Z,5.70
2022-11-14T16:58:18.379Z,5.70
2022-11-14T17:01:06.533Z,5.60
2022-11-14T17:04:00.447Z,5.50
2022-11-14T17:06:51.188Z,5.40
2022-11-14T17:09:42.609Z,5.30
2022-11-14T17:12:51.152Z,5.30
2022-11-14T17:17:04.455Z,5.20
2022-11-14T17:19:51.647Z,5.30
2022-11-14T17:23:06.590Z,5.30
2022-11-14T17:26:10.016Z,5.20
2022-11-14T17:28:56.569Z,5.00
2022-11-14T17:31:47.068Z,5.00
2022-11-14T17:34:34.038Z,4.90
2022-11-14T17:37:20.781Z,4.80
2022-11-14T17:40:17.444Z,4.80
2022-11-14T17:43:08.621Z,4.80
2022-11-14T17:46:33.446Z,4.80
2022-11-14T17:49:25.611Z,4.70
2022-11-14T17:56:29.734Z,4.70
2022-11-14T17:59:16.606Z,4.80
2022-11-14T18:02:14.401Z,4.90
2022-11-14T18:05:01.260Z,5.00
2022-11-14T18:08:09.536Z,5.00
2022-11-14T18:11:01.484Z,5.00
2022-11-14T18:13:56.182Z,5.00
2022-11-14T18:17:10.666Z,5.00
2022-11-14T18:19:56.819Z,5.10
2022-11-14T18:22:47.713Z,5.10
2022-11-14T18:26:11.588Z,5.00
2022-11-14T18:29:08.340Z,5.00
2022-11-14T18:31:59.718Z,5.00
2022-11-14T18:34:46.922Z,4.90
2022-11-14T18:37:39.897Z,4.90
2022-11-14T18:40:27.756Z,5.10
2022-11-14T18:43:46.095Z,5.10
2022-11-14T18:46:37.351Z,5.10
2022-11-14T18:49:38.879Z,5.10
2022-11-14T18:52:25.798Z,5.10
2022-11-14T18:55:11.569Z,5.10
2022-11-14T18:58:00.708Z,5.10
2022-11-14T19:00:56.930Z,5.10
2022-11-14T19:04:34.471Z,5.10
2022-11-14T19:07:20.283Z,5.00
2022-11-14T19:10:45.639Z,5.00
2022-11-14T19:13:35.766Z,5.00
2022-11-14T19:16:54.454Z,5.00
2022-11-14T19:24:57.963Z,5.10
2022-11-14T19:27:50.812Z,5.20
2022-11-14T19:30:36.575Z,5.30
2022-11-14T19:33:22.614Z,5.30
2022-11-14T19:36:27.836Z,5.40
2022-11-14T19:39:24.778Z,5.40
2022-11-14T19:42:12.707Z,5.40
2022-11-14T19:44:59.589Z,5.40
2022-11-14T19:47:49.195Z,5.40
2022-11-14T19:50:35.527Z,5.40
2022-11-14T19:53:39.519Z,5.50
2022-11-14T19:56:26.568Z,5.50
2022-11-14T19:59:23.997Z,5.50
2022-11-14T20:02:14.306Z,5.60
2022-11-14T20:05:05.446Z,5.60
2022-11-14T20:07:54.267Z,5.60
2022-11-14T20:10:47.873Z,5.60
2022-11-14T20:13:37.168Z,5.60
2022-11-14T20:16:38.583Z,5.70
2022-11-14T20:19:28.970Z,5.70
2022-11-14T20:22:19.472Z,5.70
2022-11-14T20:25:06.134Z,5.80
2022-11-14T20:28:01.971Z,5.80
2022-11-14T20:30:48.873Z,5.80
2022-11-14T20:33:42.192Z,5.90
2022-11-14T20:36:50.047Z,5.90
2022-11-14T20:39:37.708Z,5.90
2022-11-14T20:42:26.820Z,6.00
2022-11-14T20:45:15.442Z,6.00
2022-11-14T20:48:13.621Z,6.10
2022-11-14T20:51:04.495Z,6.10
2022-11-14T20:53:53.773Z,6.00
2022-11-14T20:56:39.637Z,6.00
2022-11-14T20:59:35.676Z,6.00
2022-11-14T21:02:23.901Z,6.00
2022-11-14T21:05:15.390Z,6.00
2022-11-14T21:08:02.359Z,6.10
2022-11-14T21:11:02.766Z,6.10
2022-11-14T21:14:01.869Z,6.10
2022-11-14T21:16:47.777Z,6.10
2022-11-14T21:19:35.398Z,6.10
2022-11-14T21:22:26.605Z,6.10
2022-11-14T21:25:13.271Z,6.20
2022-11-14T21:28:01.249Z,6.20
2022-11-14T21:30:49.195Z,6.20
2022-11-14T21:33:59.528Z,6.20
2022-11-14T21:36:47.049Z,6.20
2022-11-14T21:39:36.183Z,6.20
2022-11-14T21:42:23.328Z,6.20
2022-11-14T21:45:19.562Z,6.10
2022-11-14T21:48:05.334Z,6.10
2022-11-14T21:51:01.922Z,6.10
2022-11-14T21:54:12.792Z,6.20
2022-11-14T21:57:09.574Z,6.20
2022-11-14T21:59:56.096Z,6.10
2022-11-14T22:03:18.661Z,6.20
2022-11-14T22:06:30.635Z,6.10
2022-11-14T22:09:39.778Z,6.00
2022-11-14T22:12:27.112Z,6.10
2022-11-14T22:15:16.169Z,6.10
2022-11-14T22:18:03.438Z,6.00
2022-11-14T22:21:31.384Z,6.10
2022-11-14T22:24:47.642Z,6.10
2022-11-14T22:27:40.875Z,6.10
2022-11-14T22:30:29.009Z,6.00
2022-11-14T22:33:46.649Z,6.10
2022-11-14T22:36:56.131Z,6.00
2022-11-14T22:39:47.002Z,6.10
2022-11-14T22:42:39.211Z,6.00
2022-11-14T22:45:31.032Z,6.10
2022-11-14T22:48:17.820Z,6.10
2022-11-14T22:51:09.275Z,6.10
2022-11-14T22:54:08.453Z,6.10
2022-11-14T22:56:55.129Z,6.10
2022-11-14T23:00:20.540Z,6.10
2022-11-14T23:03:07.746Z,6.10
2022-11-14T23:06:25.254Z,6.10
2022-11-14T23:09:10.887Z,6.10
2022-11-14T23:11:58.706Z,6.20
2022-11-14T23:14:44.787Z,6.10
2022-11-14T23:17:39.915Z,6.20
2022-11-14T23:20:27.455Z,6.20
2022-11-14T23:23:22.360Z,6.20
2022-11-14T23:26:15.912Z,6.20
2022-11-14T23:29:03.439Z,6.20
2022-11-14T23:31:51.139Z,6.20
2022-11-14T23:34:37.007Z,6.20
2022-11-14T23:37:28.881Z,6.20
2022-11-14T23:40:17.650Z,6.20
2022-11-14T23:43:03.670Z,6.20
2022-11-14T23:45:58.729Z,6.20
2022-11-14T23:48:45.510Z,6.20
2022-11-14T23:51:47.748Z,6.20
2022-11-14T23:54:35.810Z,6.20
2022-11-14T23:57:26.869Z,6.20
